sensor_id;sensor_type;location;lat;lon;timestamp;P1;P2;P0
44045;PMS7003;29709;52.396;16.796;2023-04-23T00:02:21;26;25;17
44045;PMS7003;29709;52.396;16.796;2023-04-23T00:05:38;26;21;13
44045;PMS7003;29709;52.396;16.796;2023-04-23T00:08:53;28;25;19
44045;PMS7003;29709;52.396;16.796;2023-04-23T00:12:07;27;26;19
44045;PMS7003;29709;52.396;16.796;2023-04-23T00:15:21;26;23;18
44045;PMS7003;29709;52.396;16.796;2023-04-23T00:18:34;27;25;18
44045;PMS7003;29709;52.396;16.796;2023-04-23T00:21:47;25;24;18
44045;PMS7003;29709;52.396;16.796;2023-04-23T00:25:00;29;24;15
44045;PMS7003;29709;52.396;16.796;2023-04-23T00:28:14;20;20;16
44045;PMS7003;29709;52.396;16.796;2023-04-23T00:31:28;28;24;17
44045;PMS7003;29709;52.396;16.796;2023-04-23T00:34:41;25;21;17
44045;PMS7003;29709;52.396;16.796;2023-04-23T00:37:54;25;23;18
44045;PMS7003;29709;52.396;16.796;2023-04-23T00:41:07;27;23;18
44045;PMS7003;29709;52.396;16.796;2023-04-23T00:44:21;25;21;16
44045;PMS7003;29709;52.396;16.796;2023-04-23T00:47:35;24;22;16
44045;PMS7003;29709;52.396;16.796;2023-04-23T00:50:48;23;21;16
44045;PMS7003;29709;52.396;16.796;2023-04-23T00:54:13;26;23;17
44045;PMS7003;29709;52.396;16.796;2023-04-23T00:57:26;26;23;17
44045;PMS7003;29709;52.396;16.796;2023-04-23T01:00:41;31;24;18
44045;PMS7003;29709;52.396;16.796;2023-04-23T01:04:00;24;21;15
44045;PMS7003;29709;52.396;16.796;2023-04-23T01:07:13;28;25;18
44045;PMS7003;29709;52.396;16.796;2023-04-23T01:10:26;22;20;17
44045;PMS7003;29709;52.396;16.796;2023-04-23T01:13:40;28;23;18
44045;PMS7003;29709;52.396;16.796;2023-04-23T01:16:55;24;22;16
44045;PMS7003;29709;52.396;16.796;2023-04-23T01:20:09;10;7;5
44045;PMS7003;29709;52.396;16.796;2023-04-23T01:23:23;17;14;11
44045;PMS7003;29709;52.396;16.796;2023-04-23T01:26:38;27;24;16
44045;PMS7003;29709;52.396;16.796;2023-04-23T01:29:52;33;26;18
44045;PMS7003;29709;52.396;16.796;2023-04-23T01:33:06;22;20;17
44045;PMS7003;29709;52.396;16.796;2023-04-23T01:36:24;29;24;17
44045;PMS7003;29709;52.396;16.796;2023-04-23T01:39:38;22;20;16
44045;PMS7003;29709;52.396;16.796;2023-04-23T01:42:52;23;19;13
44045;PMS7003;29709;52.396;16.796;2023-04-23T01:46:06;18;16;11
44045;PMS7003;29709;52.396;16.796;2023-04-23T01:49:19;19;18;14
44045;PMS7003;29709;52.396;16.796;2023-04-23T01:52:32;27;25;19
44045;PMS7003;29709;52.396;16.796;2023-04-23T01:55:45;27;22;17
44045;PMS7003;29709;52.396;16.796;2023-04-23T01:59:00;28;23;18
44045;PMS7003;29709;52.396;16.796;2023-04-23T02:02:14;20;17;12
44045;PMS7003;29709;52.396;16.796;2023-04-23T02:05:28;23;20;16
44045;PMS7003;29709;52.396;16.796;2023-04-23T02:08:42;25;22;16
44045;PMS7003;29709;52.396;16.796;2023-04-23T02:11:55;20;19;16
44045;PMS7003;29709;52.396;16.796;2023-04-23T02:15:09;22;19;13
44045;PMS7003;29709;52.396;16.796;2023-04-23T02:18:24;29;23;16
44045;PMS7003;29709;52.396;16.796;2023-04-23T02:21:37;23;20;18
44045;PMS7003;29709;52.396;16.796;2023-04-23T02:24:51;25;22;16
44045;PMS7003;29709;52.396;16.796;2023-04-23T02:28:04;25;20;16
44045;PMS7003;29709;52.396;16.796;2023-04-23T02:31:19;22;18;16
44045;PMS7003;29709;52.396;16.796;2023-04-23T02:34:32;23;21;15
44045;PMS7003;29709;52.396;16.796;2023-04-23T02:37:46;26;23;18
44045;PMS7003;29709;52.396;16.796;2023-04-23T02:40:59;29;22;18
44045;PMS7003;29709;52.396;16.796;2023-04-23T02:44:12;21;19;15
44045;PMS7003;29709;52.396;16.796;2023-04-23T02:47:25;25;25;18
44045;PMS7003;29709;52.396;16.796;2023-04-23T02:50:38;23;20;16
44045;PMS7003;29709;52.396;16.796;2023-04-23T02:53:53;26;21;16
44045;PMS7003;29709;52.396;16.796;2023-04-23T02:57:06;24;23;17
44045;PMS7003;29709;52.396;16.796;2023-04-23T03:00:19;26;21;17
44045;PMS7003;29709;52.396;16.796;2023-04-23T03:03:32;20;17;14
44045;PMS7003;29709;52.396;16.796;2023-04-23T03:06:46;23;22;17
44045;PMS7003;29709;52.396;16.796;2023-04-23T03:10:00;27;21;16
44045;PMS7003;29709;52.396;16.796;2023-04-23T03:13:13;24;20;16
44045;PMS7003;29709;52.396;16.796;2023-04-23T03:16:27;21;18;14
44045;PMS7003;29709;52.396;16.796;2023-04-23T03:19:41;22;18;15
44045;PMS7003;29709;52.396;16.796;2023-04-23T03:22:54;29;25;18
44045;PMS7003;29709;52.396;16.796;2023-04-23T03:26:07;24;21;15
44045;PMS7003;29709;52.396;16.796;2023-04-23T03:29:20;22;20;16
44045;PMS7003;29709;52.396;16.796;2023-04-23T03:32:34;25;22;18
44045;PMS7003;29709;52.396;16.796;2023-04-23T03:35:48;21;21;16
44045;PMS7003;29709;52.396;16.796;2023-04-23T03:39:01;17;15;13
44045;PMS7003;29709;52.396;16.796;2023-04-23T03:42:14;22;20;16
44045;PMS7003;29709;52.396;16.796;2023-04-23T03:45:28;21;18;13
44045;PMS7003;29709;52.396;16.796;2023-04-23T03:48:42;20;18;14
44045;PMS7003;29709;52.396;16.796;2023-04-23T03:51:55;23;20;16
44045;PMS7003;29709;52.396;16.796;2023-04-23T03:55:08;15;14;9
44045;PMS7003;29709;52.396;16.796;2023-04-23T03:58:22;21;20;16
44045;PMS7003;29709;52.396;16.796;2023-04-23T04:01:35;21;18;13
44045;PMS7003;29709;52.396;16.796;2023-04-23T04:04:48;19;18;12
44045;PMS7003;29709;52.396;16.796;2023-04-23T04:08:03;22;20;15
44045;PMS7003;29709;52.396;16.796;2023-04-23T04:11:16;24;19;15
44045;PMS7003;29709;52.396;16.796;2023-04-23T04:14:30;20;18;13
44045;PMS7003;29709;52.396;16.796;2023-04-23T04:17:43;14;10;8
44045;PMS7003;29709;52.396;16.796;2023-04-23T04:20:57;18;14;10
44045;PMS7003;29709;52.396;16.796;2023-04-23T04:24:10;19;15;13
44045;PMS7003;29709;52.396;16.796;2023-04-23T04:27:23;22;18;13
44045;PMS7003;29709;52.396;16.796;2023-04-23T04:30:37;21;21;14
44045;PMS7003;29709;52.396;16.796;2023-04-23T04:33:51;23;21;15
44045;PMS7003;29709;52.396;16.796;2023-04-23T04:37:05;27;23;15
44045;PMS7003;29709;52.396;16.796;2023-04-23T04:40:19;26;22;16
44045;PMS7003;29709;52.396;16.796;2023-04-23T04:43:33;23;19;14
44045;PMS7003;29709;52.396;16.796;2023-04-23T04:46:46;20;19;15
44045;PMS7003;29709;52.396;16.796;2023-04-23T04:49:59;23;20;14
44045;PMS7003;29709;52.396;16.796;2023-04-23T04:53:12;30;26;18
44045;PMS7003;29709;52.396;16.796;2023-04-23T04:56:26;22;19;14
44045;PMS7003;29709;52.396;16.796;2023-04-23T04:59:40;19;18;14
44045;PMS7003;29709;52.396;16.796;2023-04-23T05:02:53;20;14;11
44045;PMS7003;29709;52.396;16.796;2023-04-23T05:06:07;22;21;17
44045;PMS7003;29709;52.396;16.796;2023-04-23T05:09:20;20;17;13
44045;PMS7003;29709;52.396;16.796;2023-04-23T05:12:33;19;16;12
44045;PMS7003;29709;52.396;16.796;2023-04-23T05:15:46;24;21;17
44045;PMS7003;29709;52.396;16.796;2023-04-23T05:18:59;21;18;12
44045;PMS7003;29709;52.396;16.796;2023-04-23T05:22:13;25;23;17
44045;PMS7003;29709;52.396;16.796;2023-04-23T05:25:30;23;21;16
44045;PMS7003;29709;52.396;16.796;2023-04-23T05:28:45;23;21;17
44045;PMS7003;29709;52.396;16.796;2023-04-23T05:31:59;24;21;17
44045;PMS7003;29709;52.396;16.796;2023-04-23T05:35:12;20;19;15
44045;PMS7003;29709;52.396;16.796;2023-04-23T05:38:25;19;18;14
44045;PMS7003;29709;52.396;16.796;2023-04-23T05:41:38;19;18;14
44045;PMS7003;29709;52.396;16.796;2023-04-23T05:44:51;18;16;13
44045;PMS7003;29709;52.396;16.796;2023-04-23T05:48:04;20;18;13
44045;PMS7003;29709;52.396;16.796;2023-04-23T05:51:18;24;18;12
44045;PMS7003;29709;52.396;16.796;2023-04-23T05:54:31;21;16;13
44045;PMS7003;29709;52.396;16.796;2023-04-23T05:57:44;18;11;9
44045;PMS7003;29709;52.396;16.796;2023-04-23T06:00:57;21;18;14
44045;PMS7003;29709;52.396;16.796;2023-04-23T06:04:11;20;19;15
44045;PMS7003;29709;52.396;16.796;2023-04-23T06:07:24;26;19;15
44045;PMS7003;29709;52.396;16.796;2023-04-23T06:10:37;19;17;13
44045;PMS7003;29709;52.396;16.796;2023-04-23T06:13:50;22;17;12
44045;PMS7003;29709;52.396;16.796;2023-04-23T06:17:03;17;15;11
44045;PMS7003;29709;52.396;16.796;2023-04-23T06:20:17;17;16;11
44045;PMS7003;29709;52.396;16.796;2023-04-23T06:23:31;19;17;12
44045;PMS7003;29709;52.396;16.796;2023-04-23T06:26:45;12;11;7
44045;PMS7003;29709;52.396;16.796;2023-04-23T06:29:58;21;17;14
44045;PMS7003;29709;52.396;16.796;2023-04-23T06:33:11;20;15;12
44045;PMS7003;29709;52.396;16.796;2023-04-23T06:36:24;16;15;12
44045;PMS7003;29709;52.396;16.796;2023-04-23T06:39:38;15;13;11
44045;PMS7003;29709;52.396;16.796;2023-04-23T06:42:51;13;12;10
44045;PMS7003;29709;52.396;16.796;2023-04-23T06:46:04;17;14;11
44045;PMS7003;29709;52.396;16.796;2023-04-23T06:49:17;12;11;8
44045;PMS7003;29709;52.396;16.796;2023-04-23T06:52:30;14;11;9
44045;PMS7003;29709;52.396;16.796;2023-04-23T06:55:44;12;12;10
44045;PMS7003;29709;52.396;16.796;2023-04-23T06:58:57;12;12;11
44045;PMS7003;29709;52.396;16.796;2023-04-23T07:02:10;11;11;9
44045;PMS7003;29709;52.396;16.796;2023-04-23T07:05:23;14;13;11
44045;PMS7003;29709;52.396;16.796;2023-04-23T07:08:37;16;11;9
44045;PMS7003;29709;52.396;16.796;2023-04-23T07:11:51;12;11;9
44045;PMS7003;29709;52.396;16.796;2023-04-23T07:15:05;11;10;8
44045;PMS7003;29709;52.396;16.796;2023-04-23T07:18:20;7;6;5
44045;PMS7003;29709;52.396;16.796;2023-04-23T07:21:33;7;6;5
44045;PMS7003;29709;52.396;16.796;2023-04-23T07:24:46;9;7;6
44045;PMS7003;29709;52.396;16.796;2023-04-23T07:27:59;8;7;6
44045;PMS7003;29709;52.396;16.796;2023-04-23T07:31:12;7;6;4
44045;PMS7003;29709;52.396;16.796;2023-04-23T07:34:26;11;9;6
44045;PMS7003;29709;52.396;16.796;2023-04-23T07:37:39;9;7;6
44045;PMS7003;29709;52.396;16.796;2023-04-23T07:40:52;9;9;7
44045;PMS7003;29709;52.396;16.796;2023-04-23T07:44:05;8;7;7
44045;PMS7003;29709;52.396;16.796;2023-04-23T07:47:18;12;10;8
44045;PMS7003;29709;52.396;16.796;2023-04-23T07:50:32;5;5;4
44045;PMS7003;29709;52.396;16.796;2023-04-23T07:53:45;7;6;5
44045;PMS7003;29709;52.396;16.796;2023-04-23T07:57:02;9;8;7
44045;PMS7003;29709;52.396;16.796;2023-04-23T08:00:16;6;5;5
44045;PMS7003;29709;52.396;16.796;2023-04-23T08:03:29;7;6;5
44045;PMS7003;29709;52.396;16.796;2023-04-23T08:06:42;10;9;7
44045;PMS7003;29709;52.396;16.796;2023-04-23T08:09:56;6;6;5
44045;PMS7003;29709;52.396;16.796;2023-04-23T08:13:17;8;6;5
44045;PMS7003;29709;52.396;16.796;2023-04-23T08:16:31;5;5;4
44045;PMS7003;29709;52.396;16.796;2023-04-23T08:19:44;6;4;3
44045;PMS7003;29709;52.396;16.796;2023-04-23T08:25:30;7;6;6
44045;PMS7003;29709;52.396;16.796;2023-04-23T08:28:44;4;4;4
44045;PMS7003;29709;52.396;16.796;2023-04-23T08:31:58;8;6;5
44045;PMS7003;29709;52.396;16.796;2023-04-23T08:35:11;8;8;7
44045;PMS7003;29709;52.396;16.796;2023-04-23T08:38:25;6;6;5
44045;PMS7003;29709;52.396;16.796;2023-04-23T08:41:38;8;7;5
44045;PMS7003;29709;52.396;16.796;2023-04-23T08:44:54;6;6;5
44045;PMS7003;29709;52.396;16.796;2023-04-23T08:48:09;6;6;5
44045;PMS7003;29709;52.396;16.796;2023-04-23T08:51:22;9;6;5
44045;PMS7003;29709;52.396;16.796;2023-04-23T08:54:44;9;7;6
44045;PMS7003;29709;52.396;16.796;2023-04-23T08:57:59;8;7;5
44045;PMS7003;29709;52.396;16.796;2023-04-23T09:01:17;7;6;5
44045;PMS7003;29709;52.396;16.796;2023-04-23T09:04:31;6;4;3
44045;PMS7003;29709;52.396;16.796;2023-04-23T09:07:45;6;3;2
44045;PMS7003;29709;52.396;16.796;2023-04-23T09:10:59;7;6;5
44045;PMS7003;29709;52.396;16.796;2023-04-23T09:14:14;9;7;5
44045;PMS7003;29709;52.396;16.796;2023-04-23T09:17:28;3;3;1
44045;PMS7003;29709;52.396;16.796;2023-04-23T09:20:43;7;6;5
44045;PMS7003;29709;52.396;16.796;2023-04-23T09:23:56;7;4;4
44045;PMS7003;29709;52.396;16.796;2023-04-23T09:27:09;7;6;6
44045;PMS7003;29709;52.396;16.796;2023-04-23T09:30:23;6;5;4
44045;PMS7003;29709;52.396;16.796;2023-04-23T09:33:38;9;5;4
44045;PMS7003;29709;52.396;16.796;2023-04-23T09:36:52;7;7;6
44045;PMS7003;29709;52.396;16.796;2023-04-23T09:40:06;5;5;4
44045;PMS7003;29709;52.396;16.796;2023-04-23T09:43:23;8;7;6
44045;PMS7003;29709;52.396;16.796;2023-04-23T09:46:37;7;6;5
44045;PMS7003;29709;52.396;16.796;2023-04-23T09:49:52;8;7;5
44045;PMS7003;29709;52.396;16.796;2023-04-23T09:53:05;8;6;5
44045;PMS7003;29709;52.396;16.796;2023-04-23T09:56:20;5;5;4
44045;PMS7003;29709;52.396;16.796;2023-04-23T09:59:34;8;6;5
44045;PMS7003;29709;52.396;16.796;2023-04-23T10:02:50;5;4;4
44045;PMS7003;29709;52.396;16.796;2023-04-23T10:06:04;6;4;4
44045;PMS7003;29709;52.396;16.796;2023-04-23T10:09:18;6;6;5
44045;PMS7003;29709;52.396;16.796;2023-04-23T10:12:36;5;4;4
44045;PMS7003;29709;52.396;16.796;2023-04-23T10:15:49;6;5;5
44045;PMS7003;29709;52.396;16.796;2023-04-23T10:19:04;6;5;4
44045;PMS7003;29709;52.396;16.796;2023-04-23T10:22:21;8;6;5
44045;PMS7003;29709;52.396;16.796;2023-04-23T10:25:36;8;6;5
44045;PMS7003;29709;52.396;16.796;2023-04-23T10:28:52;8;6;4
44045;PMS7003;29709;52.396;16.796;2023-04-23T10:32:06;3;2;2
44045;PMS7003;29709;52.396;16.796;2023-04-23T10:35:20;5;5;5
44045;PMS7003;29709;52.396;16.796;2023-04-23T10:38:33;5;4;4
44045;PMS7003;29709;52.396;16.796;2023-04-23T10:41:47;7;6;5
44045;PMS7003;29709;52.396;16.796;2023-04-23T10:45:01;5;3;3
44045;PMS7003;29709;52.396;16.796;2023-04-23T10:48:26;6;5;4
44045;PMS7003;29709;52.396;16.796;2023-04-23T10:51:40;6;5;4
44045;PMS7003;29709;52.396;16.796;2023-04-23T10:54:57;6;5;4
44045;PMS7003;29709;52.396;16.796;2023-04-23T10:58:12;14;7;7
44045;PMS7003;29709;52.396;16.796;2023-04-23T11:01:27;7;6;5
44045;PMS7003;29709;52.396;16.796;2023-04-23T11:04:45;8;5;4
44045;PMS7003;29709;52.396;16.796;2023-04-23T11:08:05;6;5;4
44045;PMS7003;29709;52.396;16.796;2023-04-23T11:11:23;6;5;5
44045;PMS7003;29709;52.396;16.796;2023-04-23T11:14:45;4;4;3
44045;PMS7003;29709;52.396;16.796;2023-04-23T11:18:01;5;5;4
44045;PMS7003;29709;52.396;16.796;2023-04-23T11:21:14;4;4;4
44045;PMS7003;29709;52.396;16.796;2023-04-23T11:24:29;5;5;4
44045;PMS7003;29709;52.396;16.796;2023-04-23T11:27:49;6;6;5
44045;PMS7003;29709;52.396;16.796;2023-04-23T11:31:03;6;5;4
44045;PMS7003;29709;52.396;16.796;2023-04-23T11:34:17;7;4;4
44045;PMS7003;29709;52.396;16.796;2023-04-23T11:37:31;6;5;4
44045;PMS7003;29709;52.396;16.796;2023-04-23T11:40:45;6;4;4
44045;PMS7003;29709;52.396;16.796;2023-04-23T11:44:00;4;2;2
44045;PMS7003;29709;52.396;16.796;2023-04-23T11:47:14;5;5;4
44045;PMS7003;29709;52.396;16.796;2023-04-23T11:50:30;6;5;4
44045;PMS7003;29709;52.396;16.796;2023-04-23T11:53:47;5;4;3
44045;PMS7003;29709;52.396;16.796;2023-04-23T11:57:01;7;5;4
44045;PMS7003;29709;52.396;16.796;2023-04-23T12:00:20;4;4;4
44045;PMS7003;29709;52.396;16.796;2023-04-23T12:03:35;2;2;2
44045;PMS7003;29709;52.396;16.796;2023-04-23T12:06:49;3;3;3
44045;PMS7003;29709;52.396;16.796;2023-04-23T12:10:03;7;4;4
44045;PMS7003;29709;52.396;16.796;2023-04-23T12:13:17;6;4;3
44045;PMS7003;29709;52.396;16.796;2023-04-23T12:16:35;1;1;0
44045;PMS7003;29709;52.396;16.796;2023-04-23T12:19:53;2;1;1
44045;PMS7003;29709;52.396;16.796;2023-04-23T12:23:07;1;1;1
44045;PMS7003;29709;52.396;16.796;2023-04-23T12:26:21;4;3;2
44045;PMS7003;29709;52.396;16.796;2023-04-23T12:29:37;1;1;1
44045;PMS7003;29709;52.396;16.796;2023-04-23T12:32:50;5;3;2
44045;PMS7003;29709;52.396;16.796;2023-04-23T12:36:09;5;2;1
44045;PMS7003;29709;52.396;16.796;2023-04-23T12:39:24;3;2;2
44045;PMS7003;29709;52.396;16.796;2023-04-23T12:42:40;3;2;1
44045;PMS7003;29709;52.396;16.796;2023-04-23T12:45:54;4;4;3
44045;PMS7003;29709;52.396;16.796;2023-04-23T12:49:08;4;4;3
44045;PMS7003;29709;52.396;16.796;2023-04-23T12:52:21;3;2;2
44045;PMS7003;29709;52.396;16.796;2023-04-23T12:55:34;5;2;1
44045;PMS7003;29709;52.396;16.796;2023-04-23T12:58:48;5;3;2
44045;PMS7003;29709;52.396;16.796;2023-04-23T13:02:02;5;4;3
44045;PMS7003;29709;52.396;16.796;2023-04-23T13:05:17;3;3;2
44045;PMS7003;29709;52.396;16.796;2023-04-23T13:08:30;5;4;4
44045;PMS7003;29709;52.396;16.796;2023-04-23T13:11:43;7;3;3
44045;PMS7003;29709;52.396;16.796;2023-04-23T13:15:00;4;2;2
44045;PMS7003;29709;52.396;16.796;2023-04-23T13:18:13;4;3;2
44045;PMS7003;29709;52.396;16.796;2023-04-23T13:21:26;3;3;2
44045;PMS7003;29709;52.396;16.796;2023-04-23T13:24:42;4;1;1
44045;PMS7003;29709;52.396;16.796;2023-04-23T13:28:00;5;3;2
44045;PMS7003;29709;52.396;16.796;2023-04-23T13:31:14;3;3;3
44045;PMS7003;29709;52.396;16.796;2023-04-23T13:34:30;3;3;3
44045;PMS7003;29709;52.396;16.796;2023-04-23T13:37:46;3;2;2
44045;PMS7003;29709;52.396;16.796;2023-04-23T13:40:59;6;3;3
44045;PMS7003;29709;52.396;16.796;2023-04-23T13:44:12;5;4;3
44045;PMS7003;29709;52.396;16.796;2023-04-23T13:47:27;4;4;4
44045;PMS7003;29709;52.396;16.796;2023-04-23T13:50:45;4;4;3
44045;PMS7003;29709;52.396;16.796;2023-04-23T13:53:58;4;4;3
44045;PMS7003;29709;52.396;16.796;2023-04-23T13:57:11;5;3;3
44045;PMS7003;29709;52.396;16.796;2023-04-23T14:00:26;3;3;3
44045;PMS7003;29709;52.396;16.796;2023-04-23T14:03:41;4;4;4
44045;PMS7003;29709;52.396;16.796;2023-04-23T14:06:55;5;4;3
44045;PMS7003;29709;52.396;16.796;2023-04-23T14:10:08;5;4;3
44045;PMS7003;29709;52.396;16.796;2023-04-23T14:13:21;4;3;3
44045;PMS7003;29709;52.396;16.796;2023-04-23T14:16:35;3;3;3
44045;PMS7003;29709;52.396;16.796;2023-04-23T14:19:48;5;4;4
44045;PMS7003;29709;52.396;16.796;2023-04-23T14:23:02;7;5;4
44045;PMS7003;29709;52.396;16.796;2023-04-23T14:29:45;4;4;3
44045;PMS7003;29709;52.396;16.796;2023-04-23T14:33:03;5;5;4
44045;PMS7003;29709;52.396;16.796;2023-04-23T14:36:16;6;5;5
44045;PMS7003;29709;52.396;16.796;2023-04-23T14:39:30;7;5;4
44045;PMS7003;29709;52.396;16.796;2023-04-23T14:42:43;4;4;3
44045;PMS7003;29709;52.396;16.796;2023-04-23T14:45:57;6;6;5
44045;PMS7003;29709;52.396;16.796;2023-04-23T14:49:10;6;5;5
44045;PMS7003;29709;52.396;16.796;2023-04-23T14:52:24;6;5;5
44045;PMS7003;29709;52.396;16.796;2023-04-23T14:55:37;3;2;1
44045;PMS7003;29709;52.396;16.796;2023-04-23T14:58:54;3;2;2
44045;PMS7003;29709;52.396;16.796;2023-04-23T15:02:07;5;4;4
44045;PMS7003;29709;52.396;16.796;2023-04-23T15:05:23;4;3;3
44045;PMS7003;29709;52.396;16.796;2023-04-23T15:08:36;3;3;2
44045;PMS7003;29709;52.396;16.796;2023-04-23T15:11:50;5;5;4
44045;PMS7003;29709;52.396;16.796;2023-04-23T15:15:03;4;3;3
44045;PMS7003;29709;52.396;16.796;2023-04-23T15:18:17;6;4;3
44045;PMS7003;29709;52.396;16.796;2023-04-23T15:21:31;6;5;5
44045;PMS7003;29709;52.396;16.796;2023-04-23T15:24:44;6;6;5
44045;PMS7003;29709;52.396;16.796;2023-04-23T15:27:58;6;5;4
44045;PMS7003;29709;52.396;16.796;2023-04-23T15:31:12;5;5;4
44045;PMS7003;29709;52.396;16.796;2023-04-23T15:34:26;6;6;5
44045;PMS7003;29709;52.396;16.796;2023-04-23T15:37:39;6;5;4
44045;PMS7003;29709;52.396;16.796;2023-04-23T15:40:54;5;4;2
44045;PMS7003;29709;52.396;16.796;2023-04-23T15:44:08;7;7;5
44045;PMS7003;29709;52.396;16.796;2023-04-23T15:47:24;5;5;4
44045;PMS7003;29709;52.396;16.796;2023-04-23T15:50:37;7;7;5
44045;PMS7003;29709;52.396;16.796;2023-04-23T15:53:51;7;7;6
44045;PMS7003;29709;52.396;16.796;2023-04-23T15:57:05;10;10;8
44045;PMS7003;29709;52.396;16.796;2023-04-23T16:00:21;7;6;5
44045;PMS7003;29709;52.396;16.796;2023-04-23T16:03:34;10;7;6
44045;PMS7003;29709;52.396;16.796;2023-04-23T16:06:48;11;10;9
44045;PMS7003;29709;52.396;16.796;2023-04-23T16:10:01;16;14;10
44045;PMS7003;29709;52.396;16.796;2023-04-23T16:13:14;10;7;6
44045;PMS7003;29709;52.396;16.796;2023-04-23T16:16:27;7;7;6
44045;PMS7003;29709;52.396;16.796;2023-04-23T16:19:42;6;6;4
44045;PMS7003;29709;52.396;16.796;2023-04-23T16:22:55;8;6;5
44045;PMS7003;29709;52.396;16.796;2023-04-23T16:26:08;11;9;7
44045;PMS7003;29709;52.396;16.796;2023-04-23T16:29:23;8;7;5
44045;PMS7003;29709;52.396;16.796;2023-04-23T16:32:36;9;6;5
44045;PMS7003;29709;52.396;16.796;2023-04-23T16:35:50;5;5;4
44045;PMS7003;29709;52.396;16.796;2023-04-23T16:39:03;8;7;6
44045;PMS7003;29709;52.396;16.796;2023-04-23T16:42:16;3;2;2
44045;PMS7003;29709;52.396;16.796;2023-04-23T16:45:29;8;7;6
44045;PMS7003;29709;52.396;16.796;2023-04-23T16:48:43;6;6;6
44045;PMS7003;29709;52.396;16.796;2023-04-23T16:51:57;8;8;7
44045;PMS7003;29709;52.396;16.796;2023-04-23T16:55:10;12;10;9
44045;PMS7003;29709;52.396;16.796;2023-04-23T16:58:23;10;10;9
44045;PMS7003;29709;52.396;16.796;2023-04-23T17:01:36;12;11;10
44045;PMS7003;29709;52.396;16.796;2023-04-23T17:04:49;10;8;7
44045;PMS7003;29709;52.396;16.796;2023-04-23T17:08:03;11;10;8
44045;PMS7003;29709;52.396;16.796;2023-04-23T17:11:16;8;7;6
44045;PMS7003;29709;52.396;16.796;2023-04-23T17:14:29;9;8;7
44045;PMS7003;29709;52.396;16.796;2023-04-23T17:17:43;9;8;6
44045;PMS7003;29709;52.396;16.796;2023-04-23T17:20:56;10;9;8
44045;PMS7003;29709;52.396;16.796;2023-04-23T17:24:09;12;10;7
44045;PMS7003;29709;52.396;16.796;2023-04-23T17:27:22;8;8;7
44045;PMS7003;29709;52.396;16.796;2023-04-23T17:30:36;11;11;8
44045;PMS7003;29709;52.396;16.796;2023-04-23T17:33:49;11;9;8
44045;PMS7003;29709;52.396;16.796;2023-04-23T17:37:06;11;8;7
44045;PMS7003;29709;52.396;16.796;2023-04-23T17:40:19;10;9;7
44045;PMS7003;29709;52.396;16.796;2023-04-23T17:43:34;7;7;6
44045;PMS7003;29709;52.396;16.796;2023-04-23T17:46:48;10;8;6
44045;PMS7003;29709;52.396;16.796;2023-04-23T17:50:06;6;6;4
44045;PMS7003;29709;52.396;16.796;2023-04-23T17:53:23;8;7;6
44045;PMS7003;29709;52.396;16.796;2023-04-23T17:56:37;8;8;7
44045;PMS7003;29709;52.396;16.796;2023-04-23T17:59:51;6;5;5
44045;PMS7003;29709;52.396;16.796;2023-04-23T18:03:04;9;8;7
44045;PMS7003;29709;52.396;16.796;2023-04-23T18:06:20;7;7;6
44045;PMS7003;29709;52.396;16.796;2023-04-23T18:09:34;8;7;6
44045;PMS7003;29709;52.396;16.796;2023-04-23T18:12:48;8;8;6
44045;PMS7003;29709;52.396;16.796;2023-04-23T18:16:01;14;12;10
44045;PMS7003;29709;52.396;16.796;2023-04-23T18:19:15;12;12;10
44045;PMS7003;29709;52.396;16.796;2023-04-23T18:22:28;11;10;8
44045;PMS7003;29709;52.396;16.796;2023-04-23T18:25:41;10;9;7
44045;PMS7003;29709;52.396;16.796;2023-04-23T18:28:54;11;8;6
44045;PMS7003;29709;52.396;16.796;2023-04-23T18:32:07;7;6;5
44045;PMS7003;29709;52.396;16.796;2023-04-23T18:35:21;7;6;5
44045;PMS7003;29709;52.396;16.796;2023-04-23T18:38:35;9;8;7
44045;PMS7003;29709;52.396;16.796;2023-04-23T18:41:54;6;6;6
44045;PMS7003;29709;52.396;16.796;2023-04-23T18:45:08;8;7;6
44045;PMS7003;29709;52.396;16.796;2023-04-23T18:51:52;11;8;8
44045;PMS7003;29709;52.396;16.796;2023-04-23T18:55:06;8;7;6
44045;PMS7003;29709;52.396;16.796;2023-04-23T18:58:19;9;8;6
44045;PMS7003;29709;52.396;16.796;2023-04-23T19:01:33;10;10;8
44045;PMS7003;29709;52.396;16.796;2023-04-23T19:04:46;10;9;7
44045;PMS7003;29709;52.396;16.796;2023-04-23T19:07:59;8;8;7
44045;PMS7003;29709;52.396;16.796;2023-04-23T19:11:14;9;8;6
44045;PMS7003;29709;52.396;16.796;2023-04-23T19:14:28;11;9;7
44045;PMS7003;29709;52.396;16.796;2023-04-23T19:17:41;10;8;7
44045;PMS7003;29709;52.396;16.796;2023-04-23T19:20:54;8;7;6
44045;PMS7003;29709;52.396;16.796;2023-04-23T19:24:08;11;9;7
44045;PMS7003;29709;52.396;16.796;2023-04-23T19:27:21;6;6;4
44045;PMS7003;29709;52.396;16.796;2023-04-23T19:30:34;9;7;6
44045;PMS7003;29709;52.396;16.796;2023-04-23T19:33:49;9;9;6
44045;PMS7003;29709;52.396;16.796;2023-04-23T19:37:02;7;7;6
44045;PMS7003;29709;52.396;16.796;2023-04-23T19:40:15;6;5;5
44045;PMS7003;29709;52.396;16.796;2023-04-23T19:43:29;9;7;6
44045;PMS7003;29709;52.396;16.796;2023-04-23T19:46:42;9;7;6
44045;PMS7003;29709;52.396;16.796;2023-04-23T19:49:55;8;7;6
44045;PMS7003;29709;52.396;16.796;2023-04-23T19:53:08;8;7;6
44045;PMS7003;29709;52.396;16.796;2023-04-23T19:56:24;8;8;6
44045;PMS7003;29709;52.396;16.796;2023-04-23T19:59:37;8;7;6
44045;PMS7003;29709;52.396;16.796;2023-04-23T20:02:51;8;8;7
44045;PMS7003;29709;52.396;16.796;2023-04-23T20:06:04;8;8;7
44045;PMS7003;29709;52.396;16.796;2023-04-23T20:09:17;10;9;7
44045;PMS7003;29709;52.396;16.796;2023-04-23T20:12:35;10;7;6
44045;PMS7003;29709;52.396;16.796;2023-04-23T20:15:49;8;8;6
44045;PMS7003;29709;52.396;16.796;2023-04-23T20:19:02;11;10;9
44045;PMS7003;29709;52.396;16.796;2023-04-23T20:22:16;10;10;8
44045;PMS7003;29709;52.396;16.796;2023-04-23T20:25:30;11;10;8
44045;PMS7003;29709;52.396;16.796;2023-04-23T20:28:43;11;10;8
44045;PMS7003;29709;52.396;16.796;2023-04-23T20:31:59;10;9;8
44045;PMS7003;29709;52.396;16.796;2023-04-23T20:35:13;11;10;8
44045;PMS7003;29709;52.396;16.796;2023-04-23T20:38:27;11;9;7
44045;PMS7003;29709;52.396;16.796;2023-04-23T20:41:44;10;9;8
44045;PMS7003;29709;52.396;16.796;2023-04-23T20:44:58;12;9;8
44045;PMS7003;29709;52.396;16.796;2023-04-23T20:48:12;11;11;8
44045;PMS7003;29709;52.396;16.796;2023-04-23T20:51:26;13;12;9
44045;PMS7003;29709;52.396;16.796;2023-04-23T20:54:45;14;11;9
44045;PMS7003;29709;52.396;16.796;2023-04-23T20:57:58;12;11;9
44045;PMS7003;29709;52.396;16.796;2023-04-23T21:01:12;12;10;9
44045;PMS7003;29709;52.396;16.796;2023-04-23T21:04:25;14;12;10
44045;PMS7003;29709;52.396;16.796;2023-04-23T21:07:38;14;13;10
44045;PMS7003;29709;52.396;16.796;2023-04-23T21:10:51;15;14;12
44045;PMS7003;29709;52.396;16.796;2023-04-23T21:14:05;15;14;11